Аэропорт: Челябинск. Челябинск

ICAO: USCC

METAR:
2019-09-21 16:00:00
USCC 211600Z 12003MPS 4600 -RA BR OVC010 07/07 Q1008 R09/290050 NOSIG RMK QFE735
METAR:
2019-09-21 14:00:00
TAF USCC 211400Z 2115/2215 13003G10MPS 3100 -SHRA BKN011CB TEMPO 2115/2124 02005G12MPS 2000 SHRA BKN005CB FM220000 29005G12MPS 9999 -SHRA BKN015CB TEMPO 2200/2215 31008G16MPS 3100 -SHRA BKN011CB